sensor_id;sensor_type;location;lat;lon;timestamp;P1;durP1;ratioP1;P2;durP2;ratioP2
54539;SDS011;40438;52.992;18.604;2022-10-01T00:00:12;46.35;;;20.80;;
54539;SDS011;40438;52.992;18.604;2022-10-01T00:02:38;45.65;;;20.15;;
54539;SDS011;40438;52.992;18.604;2022-10-01T00:05:04;45.13;;;20.23;;
54539;SDS011;40438;52.992;18.604;2022-10-01T00:07:35;45.38;;;19.63;;
54539;SDS011;40438;52.992;18.604;2022-10-01T00:10:02;49.05;;;19.98;;
54539;SDS011;40438;52.992;18.604;2022-10-01T00:12:28;51.08;;;22.75;;
54539;SDS011;40438;52.992;18.604;2022-10-01T00:14:54;48.72;;;20.25;;
54539;SDS011;40438;52.992;18.604;2022-10-01T00:17:21;45.80;;;20.05;;
54539;SDS011;40438;52.992;18.604;2022-10-01T00:19:47;48.25;;;20.05;;
54539;SDS011;40438;52.992;18.604;2022-10-01T00:22:12;47.47;;;19.80;;
54539;SDS011;40438;52.992;18.604;2022-10-01T00:24:38;48.28;;;20.52;;
54539;SDS011;40438;52.992;18.604;2022-10-01T00:27:04;52.95;;;21.20;;
54539;SDS011;40438;52.992;18.604;2022-10-01T00:29:29;44.53;;;21.02;;
54539;SDS011;40438;52.992;18.604;2022-10-01T00:31:55;48.40;;;20.88;;
54539;SDS011;40438;52.992;18.604;2022-10-01T00:34:22;49.85;;;21.67;;
54539;SDS011;40438;52.992;18.604;2022-10-01T00:36:48;53.25;;;22.23;;
54539;SDS011;40438;52.992;18.604;2022-10-01T00:39:14;51.28;;;22.42;;
54539;SDS011;40438;52.992;18.604;2022-10-01T00:41:40;46.38;;;20.85;;
54539;SDS011;40438;52.992;18.604;2022-10-01T00:46:54;39.55;;;17.75;;
54539;SDS011;40438;52.992;18.604;2022-10-01T00:49:26;42.17;;;19.17;;
54539;SDS011;40438;52.992;18.604;2022-10-01T00:51:55;40.47;;;18.80;;
54539;SDS011;40438;52.992;18.604;2022-10-01T00:54:25;42.13;;;17.90;;
54539;SDS011;40438;52.992;18.604;2022-10-01T00:56:56;43.30;;;19.83;;
54539;SDS011;40438;52.992;18.604;2022-10-01T00:59:23;45.58;;;20.17;;
54539;SDS011;40438;52.992;18.604;2022-10-01T01:01:50;40.95;;;19.55;;
54539;SDS011;40438;52.992;18.604;2022-10-01T01:04:16;42.63;;;20.13;;
54539;SDS011;40438;52.992;18.604;2022-10-01T01:06:44;39.33;;;19.20;;
54539;SDS011;40438;52.992;18.604;2022-10-01T01:09:11;37.80;;;19.17;;
54539;SDS011;40438;52.992;18.604;2022-10-01T01:11:39;52.72;;;22.08;;
54539;SDS011;40438;52.992;18.604;2022-10-01T01:14:13;58.97;;;24.27;;
54539;SDS011;40438;52.992;18.604;2022-10-01T01:16:46;64.28;;;25.45;;
54539;SDS011;40438;52.992;18.604;2022-10-01T01:19:20;45.28;;;18.48;;
54539;SDS011;40438;52.992;18.604;2022-10-01T01:21:58;45.25;;;18.67;;
54539;SDS011;40438;52.992;18.604;2022-10-01T01:24:42;39.28;;;18.35;;
54539;SDS011;40438;52.992;18.604;2022-10-01T01:27:18;42.42;;;17.92;;
54539;SDS011;40438;52.992;18.604;2022-10-01T01:29:52;38.58;;;17.88;;
54539;SDS011;40438;52.992;18.604;2022-10-01T01:32:22;38.30;;;16.92;;
54539;SDS011;40438;52.992;18.604;2022-10-01T01:34:53;36.77;;;16.97;;
54539;SDS011;40438;52.992;18.604;2022-10-01T01:37:23;34.13;;;15.43;;
54539;SDS011;40438;52.992;18.604;2022-10-01T01:39:51;32.05;;;15.05;;
54539;SDS011;40438;52.992;18.604;2022-10-01T01:42:28;40.28;;;18.27;;
54539;SDS011;40438;52.992;18.604;2022-10-01T01:44:59;31.23;;;15.35;;
54539;SDS011;40438;52.992;18.604;2022-10-01T01:47:28;29.75;;;14.60;;
54539;SDS011;40438;52.992;18.604;2022-10-01T01:49:54;35.65;;;16.20;;
54539;SDS011;40438;52.992;18.604;2022-10-01T01:52:20;33.72;;;16.38;;
54539;SDS011;40438;52.992;18.604;2022-10-01T01:54:46;31.90;;;15.65;;
54539;SDS011;40438;52.992;18.604;2022-10-01T01:57:13;38.50;;;16.50;;
54539;SDS011;40438;52.992;18.604;2022-10-01T01:59:41;35.78;;;15.95;;
54539;SDS011;40438;52.992;18.604;2022-10-01T02:02:10;38.03;;;17.25;;
54539;SDS011;40438;52.992;18.604;2022-10-01T02:04:38;35.85;;;16.50;;
54539;SDS011;40438;52.992;18.604;2022-10-01T02:09:58;36.13;;;17.02;;
54539;SDS011;40438;52.992;18.604;2022-10-01T02:12:36;34.85;;;17.10;;
54539;SDS011;40438;52.992;18.604;2022-10-01T02:15:12;39.67;;;17.65;;
54539;SDS011;40438;52.992;18.604;2022-10-01T02:17:48;37.92;;;15.88;;
54539;SDS011;40438;52.992;18.604;2022-10-01T02:20:23;35.83;;;15.05;;
54539;SDS011;40438;52.992;18.604;2022-10-01T02:22:53;36.63;;;14.88;;
54539;SDS011;40438;52.992;18.604;2022-10-01T02:25:23;36.78;;;15.48;;
54539;SDS011;40438;52.992;18.604;2022-10-01T02:27:54;36.47;;;15.45;;
54539;SDS011;40438;52.992;18.604;2022-10-01T02:30:23;35.38;;;15.95;;
54539;SDS011;40438;52.992;18.604;2022-10-01T02:32:51;40.45;;;16.55;;
54539;SDS011;40438;52.992;18.604;2022-10-01T02:35:18;42.47;;;16.90;;
54539;SDS011;40438;52.992;18.604;2022-10-01T02:37:46;35.78;;;16.98;;
54539;SDS011;40438;52.992;18.604;2022-10-01T02:40:15;35.28;;;16.17;;
54539;SDS011;40438;52.992;18.604;2022-10-01T02:42:47;37.10;;;17.70;;
54539;SDS011;40438;52.992;18.604;2022-10-01T02:45:17;38.08;;;17.40;;
54539;SDS011;40438;52.992;18.604;2022-10-01T02:47:47;38.95;;;17.40;;
54539;SDS011;40438;52.992;18.604;2022-10-01T02:50:18;35.20;;;16.35;;
54539;SDS011;40438;52.992;18.604;2022-10-01T02:52:46;34.53;;;15.85;;
54539;SDS011;40438;52.992;18.604;2022-10-01T02:55:17;36.30;;;16.98;;
54539;SDS011;40438;52.992;18.604;2022-10-01T02:57:48;34.00;;;16.27;;
54539;SDS011;40438;52.992;18.604;2022-10-01T03:00:15;35.42;;;16.38;;
54539;SDS011;40438;52.992;18.604;2022-10-01T03:02:42;39.33;;;16.52;;
54539;SDS011;40438;52.992;18.604;2022-10-01T03:05:09;33.15;;;15.70;;
54539;SDS011;40438;52.992;18.604;2022-10-01T03:07:35;35.95;;;16.58;;
54539;SDS011;40438;52.992;18.604;2022-10-01T03:10:01;41.20;;;16.67;;
54539;SDS011;40438;52.992;18.604;2022-10-01T03:12:27;39.95;;;16.35;;
54539;SDS011;40438;52.992;18.604;2022-10-01T03:14:52;37.70;;;15.93;;
54539;SDS011;40438;52.992;18.604;2022-10-01T03:17:18;37.40;;;15.65;;
54539;SDS011;40438;52.992;18.604;2022-10-01T03:19:44;35.85;;;15.70;;
54539;SDS011;40438;52.992;18.604;2022-10-01T03:22:12;30.17;;;14.77;;
54539;SDS011;40438;52.992;18.604;2022-10-01T03:24:38;36.47;;;16.48;;
54539;SDS011;40438;52.992;18.604;2022-10-01T03:27:04;34.90;;;15.13;;
54539;SDS011;40438;52.992;18.604;2022-10-01T03:29:30;36.95;;;15.93;;
54539;SDS011;40438;52.992;18.604;2022-10-01T03:31:55;36.03;;;16.33;;
54539;SDS011;40438;52.992;18.604;2022-10-01T03:34:21;33.80;;;15.85;;
54539;SDS011;40438;52.992;18.604;2022-10-01T03:36:47;30.58;;;15.20;;
54539;SDS011;40438;52.992;18.604;2022-10-01T03:39:15;34.10;;;15.65;;
54539;SDS011;40438;52.992;18.604;2022-10-01T03:41:40;35.30;;;16.77;;
54539;SDS011;40438;52.992;18.604;2022-10-01T03:44:06;36.13;;;15.90;;
54539;SDS011;40438;52.992;18.604;2022-10-01T03:46:32;31.33;;;14.73;;
54539;SDS011;40438;52.992;18.604;2022-10-01T03:48:57;36.58;;;15.90;;
54539;SDS011;40438;52.992;18.604;2022-10-01T03:51:23;36.38;;;15.18;;
54539;SDS011;40438;52.992;18.604;2022-10-01T03:53:49;35.92;;;15.57;;
54539;SDS011;40438;52.992;18.604;2022-10-01T03:56:16;34.92;;;16.00;;
54539;SDS011;40438;52.992;18.604;2022-10-01T03:58:42;34.15;;;15.75;;
54539;SDS011;40438;52.992;18.604;2022-10-01T04:01:08;41.13;;;16.42;;
54539;SDS011;40438;52.992;18.604;2022-10-01T04:03:33;38.10;;;17.15;;
54539;SDS011;40438;52.992;18.604;2022-10-01T04:05:59;29.52;;;15.20;;
54539;SDS011;40438;52.992;18.604;2022-10-01T04:08:25;34.33;;;14.50;;
54539;SDS011;40438;52.992;18.604;2022-10-01T04:10:50;33.05;;;15.57;;
54539;SDS011;40438;52.992;18.604;2022-10-01T04:13:17;33.35;;;15.27;;
54539;SDS011;40438;52.992;18.604;2022-10-01T04:15:43;33.00;;;15.10;;
54539;SDS011;40438;52.992;18.604;2022-10-01T04:18:09;34.00;;;15.32;;
54539;SDS011;40438;52.992;18.604;2022-10-01T04:20:35;35.28;;;15.15;;
54539;SDS011;40438;52.992;18.604;2022-10-01T04:23:02;33.78;;;15.63;;
54539;SDS011;40438;52.992;18.604;2022-10-01T04:25:28;45.22;;;19.08;;
54539;SDS011;40438;52.992;18.604;2022-10-01T04:27:55;42.78;;;17.45;;
54539;SDS011;40438;52.992;18.604;2022-10-01T04:30:24;35.95;;;16.70;;
54539;SDS011;40438;52.992;18.604;2022-10-01T04:32:51;34.90;;;16.20;;
54539;SDS011;40438;52.992;18.604;2022-10-01T04:35:17;32.55;;;15.63;;
54539;SDS011;40438;52.992;18.604;2022-10-01T04:37:43;36.88;;;16.75;;
54539;SDS011;40438;52.992;18.604;2022-10-01T04:40:08;33.45;;;15.05;;
54539;SDS011;40438;52.992;18.604;2022-10-01T04:42:34;33.65;;;15.00;;
54539;SDS011;40438;52.992;18.604;2022-10-01T04:45:02;29.75;;;15.43;;
54539;SDS011;40438;52.992;18.604;2022-10-01T04:47:30;33.50;;;15.35;;
54539;SDS011;40438;52.992;18.604;2022-10-01T04:49:56;30.75;;;14.95;;
54539;SDS011;40438;52.992;18.604;2022-10-01T04:52:21;35.50;;;15.32;;
54539;SDS011;40438;52.992;18.604;2022-10-01T04:54:47;37.80;;;16.10;;
54539;SDS011;40438;52.992;18.604;2022-10-01T04:57:13;31.35;;;15.27;;
54539;SDS011;40438;52.992;18.604;2022-10-01T04:59:39;37.10;;;16.08;;
54539;SDS011;40438;52.992;18.604;2022-10-01T05:02:04;30.85;;;15.35;;
54539;SDS011;40438;52.992;18.604;2022-10-01T05:04:31;37.53;;;17.15;;
54539;SDS011;40438;52.992;18.604;2022-10-01T05:06:57;38.28;;;15.85;;
54539;SDS011;40438;52.992;18.604;2022-10-01T05:09:23;39.47;;;17.33;;
54539;SDS011;40438;52.992;18.604;2022-10-01T05:11:48;42.63;;;18.45;;
54539;SDS011;40438;52.992;18.604;2022-10-01T05:14:14;43.08;;;20.13;;
54539;SDS011;40438;52.992;18.604;2022-10-01T05:16:40;43.85;;;20.38;;
54539;SDS011;40438;52.992;18.604;2022-10-01T05:19:06;40.15;;;18.75;;
54539;SDS011;40438;52.992;18.604;2022-10-01T05:21:33;37.22;;;18.05;;
54539;SDS011;40438;52.992;18.604;2022-10-01T05:23:59;36.90;;;18.33;;
54539;SDS011;40438;52.992;18.604;2022-10-01T05:26:25;39.13;;;17.58;;
54539;SDS011;40438;52.992;18.604;2022-10-01T05:28:50;45.60;;;19.88;;
54539;SDS011;40438;52.992;18.604;2022-10-01T05:31:16;60.00;;;21.48;;
54539;SDS011;40438;52.992;18.604;2022-10-01T05:33:42;46.80;;;21.65;;
54539;SDS011;40438;52.992;18.604;2022-10-01T05:36:07;50.50;;;22.15;;
54539;SDS011;40438;52.992;18.604;2022-10-01T05:38:34;53.38;;;22.05;;
54539;SDS011;40438;52.992;18.604;2022-10-01T05:41:00;44.42;;;19.13;;
54539;SDS011;40438;52.992;18.604;2022-10-01T05:43:26;36.35;;;17.23;;
54539;SDS011;40438;52.992;18.604;2022-10-01T05:45:52;38.42;;;17.27;;
54539;SDS011;40438;52.992;18.604;2022-10-01T05:48:17;33.45;;;15.75;;
54539;SDS011;40438;52.992;18.604;2022-10-01T05:50:43;34.60;;;16.00;;
54539;SDS011;40438;52.992;18.604;2022-10-01T05:53:09;33.75;;;16.30;;
54539;SDS011;40438;52.992;18.604;2022-10-01T05:55:37;31.70;;;15.27;;
54539;SDS011;40438;52.992;18.604;2022-10-01T05:58:03;37.33;;;16.48;;
54539;SDS011;40438;52.992;18.604;2022-10-01T06:00:31;36.67;;;17.73;;
54539;SDS011;40438;52.992;18.604;2022-10-01T06:02:58;43.53;;;19.50;;
54539;SDS011;40438;52.992;18.604;2022-10-01T06:05:25;41.70;;;17.02;;
54539;SDS011;40438;52.992;18.604;2022-10-01T06:07:52;33.35;;;16.45;;
54539;SDS011;40438;52.992;18.604;2022-10-01T06:10:18;39.22;;;16.23;;
54539;SDS011;40438;52.992;18.604;2022-10-01T06:12:46;34.85;;;16.00;;
54539;SDS011;40438;52.992;18.604;2022-10-01T06:15:12;39.97;;;17.10;;
54539;SDS011;40438;52.992;18.604;2022-10-01T06:17:38;38.72;;;18.00;;
54539;SDS011;40438;52.992;18.604;2022-10-01T06:20:04;35.65;;;17.27;;
54539;SDS011;40438;52.992;18.604;2022-10-01T06:22:30;36.67;;;16.90;;
54539;SDS011;40438;52.992;18.604;2022-10-01T06:24:56;42.60;;;18.23;;
54539;SDS011;40438;52.992;18.604;2022-10-01T06:27:22;35.33;;;16.98;;
54539;SDS011;40438;52.992;18.604;2022-10-01T06:29:49;33.90;;;16.42;;
54539;SDS011;40438;52.992;18.604;2022-10-01T06:32:15;38.85;;;16.83;;
54539;SDS011;40438;52.992;18.604;2022-10-01T06:34:41;36.30;;;16.90;;
54539;SDS011;40438;52.992;18.604;2022-10-01T06:37:07;41.22;;;17.38;;
54539;SDS011;40438;52.992;18.604;2022-10-01T06:39:33;38.75;;;18.42;;
54539;SDS011;40438;52.992;18.604;2022-10-01T06:41:58;37.05;;;17.27;;
54539;SDS011;40438;52.992;18.604;2022-10-01T06:44:24;43.55;;;17.83;;
54539;SDS011;40438;52.992;18.604;2022-10-01T06:46:51;34.65;;;15.60;;
54539;SDS011;40438;52.992;18.604;2022-10-01T06:49:17;34.15;;;16.30;;
54539;SDS011;40438;52.992;18.604;2022-10-01T06:51:43;32.72;;;16.60;;
54539;SDS011;40438;52.992;18.604;2022-10-01T06:54:08;39.75;;;16.67;;
54539;SDS011;40438;52.992;18.604;2022-10-01T06:56:34;38.85;;;17.02;;
54539;SDS011;40438;52.992;18.604;2022-10-01T06:59:00;38.95;;;17.27;;
54539;SDS011;40438;52.992;18.604;2022-10-01T07:01:26;35.92;;;16.65;;
54539;SDS011;40438;52.992;18.604;2022-10-01T07:03:53;36.95;;;16.88;;
54539;SDS011;40438;52.992;18.604;2022-10-01T07:06:19;35.35;;;16.13;;
54539;SDS011;40438;52.992;18.604;2022-10-01T07:08:47;41.15;;;16.73;;
54539;SDS011;40438;52.992;18.604;2022-10-01T07:11:13;33.47;;;16.58;;
54539;SDS011;40438;52.992;18.604;2022-10-01T07:13:38;32.90;;;15.57;;
54539;SDS011;40438;52.992;18.604;2022-10-01T07:16:04;36.00;;;15.30;;
54539;SDS011;40438;52.992;18.604;2022-10-01T07:18:30;30.52;;;15.65;;
54539;SDS011;40438;52.992;18.604;2022-10-01T07:20:57;32.03;;;15.35;;
54539;SDS011;40438;52.992;18.604;2022-10-01T07:23:23;32.10;;;15.32;;
54539;SDS011;40438;52.992;18.604;2022-10-01T07:25:49;28.05;;;14.82;;
54539;SDS011;40438;52.992;18.604;2022-10-01T07:28:16;27.13;;;15.32;;
54539;SDS011;40438;52.992;18.604;2022-10-01T07:30:43;27.92;;;14.07;;
54539;SDS011;40438;52.992;18.604;2022-10-01T07:33:09;25.40;;;13.32;;
54539;SDS011;40438;52.992;18.604;2022-10-01T07:35:35;27.52;;;13.95;;
54539;SDS011;40438;52.992;18.604;2022-10-01T07:38:02;26.77;;;13.40;;
54539;SDS011;40438;52.992;18.604;2022-10-01T07:40:28;23.77;;;13.38;;
54539;SDS011;40438;52.992;18.604;2022-10-01T07:42:54;24.23;;;13.02;;
54539;SDS011;40438;52.992;18.604;2022-10-01T07:45:20;25.45;;;11.63;;
54539;SDS011;40438;52.992;18.604;2022-10-01T07:47:50;20.95;;;10.75;;
54539;SDS011;40438;52.992;18.604;2022-10-01T07:50:16;19.83;;;10.55;;
54539;SDS011;40438;52.992;18.604;2022-10-01T07:52:42;21.30;;;10.70;;
54539;SDS011;40438;52.992;18.604;2022-10-01T07:55:09;20.80;;;10.73;;
54539;SDS011;40438;52.992;18.604;2022-10-01T07:57:35;17.67;;;9.82;;
54539;SDS011;40438;52.992;18.604;2022-10-01T08:00:01;17.52;;;9.63;;
54539;SDS011;40438;52.992;18.604;2022-10-01T08:02:26;21.13;;;10.35;;
54539;SDS011;40438;52.992;18.604;2022-10-01T08:04:52;16.27;;;9.65;;
54539;SDS011;40438;52.992;18.604;2022-10-01T08:07:18;18.98;;;9.57;;
54539;SDS011;40438;52.992;18.604;2022-10-01T08:09:44;17.83;;;8.82;;
54539;SDS011;40438;52.992;18.604;2022-10-01T08:12:11;19.33;;;9.38;;
54539;SDS011;40438;52.992;18.604;2022-10-01T08:14:36;15.73;;;8.43;;
54539;SDS011;40438;52.992;18.604;2022-10-01T08:17:02;16.50;;;9.02;;
54539;SDS011;40438;52.992;18.604;2022-10-01T08:19:28;15.88;;;8.93;;
54539;SDS011;40438;52.992;18.604;2022-10-01T08:21:54;14.38;;;8.48;;
54539;SDS011;40438;52.992;18.604;2022-10-01T08:24:19;16.95;;;8.48;;
54539;SDS011;40438;52.992;18.604;2022-10-01T08:26:49;14.57;;;8.35;;
54539;SDS011;40438;52.992;18.604;2022-10-01T08:29:17;15.23;;;7.80;;
54539;SDS011;40438;52.992;18.604;2022-10-01T08:31:43;14.93;;;8.23;;
54539;SDS011;40438;52.992;18.604;2022-10-01T08:34:09;13.93;;;8.35;;
54539;SDS011;40438;52.992;18.604;2022-10-01T08:36:34;14.40;;;8.18;;
54539;SDS011;40438;52.992;18.604;2022-10-01T08:39:00;17.60;;;7.78;;
54539;SDS011;40438;52.992;18.604;2022-10-01T08:41:33;14.30;;;7.32;;
54539;SDS011;40438;52.992;18.604;2022-10-01T08:44:13;16.95;;;8.32;;
54539;SDS011;40438;52.992;18.604;2022-10-01T08:46:44;14.18;;;8.63;;
54539;SDS011;40438;52.992;18.604;2022-10-01T08:49:11;17.60;;;8.07;;
54539;SDS011;40438;52.992;18.604;2022-10-01T08:51:44;15.32;;;8.45;;
54539;SDS011;40438;52.992;18.604;2022-10-01T08:54:18;15.32;;;8.70;;
54539;SDS011;40438;52.992;18.604;2022-10-01T08:56:50;14.40;;;7.68;;
54539;SDS011;40438;52.992;18.604;2022-10-01T08:59:24;15.57;;;7.97;;
54539;SDS011;40438;52.992;18.604;2022-10-01T09:01:59;17.55;;;8.25;;
54539;SDS011;40438;52.992;18.604;2022-10-01T09:04:25;14.77;;;7.97;;
54539;SDS011;40438;52.992;18.604;2022-10-01T09:06:53;14.07;;;8.30;;
54539;SDS011;40438;52.992;18.604;2022-10-01T09:09:31;19.02;;;8.40;;
54539;SDS011;40438;52.992;18.604;2022-10-01T09:12:13;15.18;;;8.05;;
54539;SDS011;40438;52.992;18.604;2022-10-01T09:17:26;19.73;;;8.57;;
54539;SDS011;40438;52.992;18.604;2022-10-01T09:20:09;12.20;;;7.22;;
54539;SDS011;40438;52.992;18.604;2022-10-01T09:22:43;13.57;;;8.40;;
54539;SDS011;40438;52.992;18.604;2022-10-01T09:25:23;18.77;;;9.48;;
54539;SDS011;40438;52.992;18.604;2022-10-01T09:27:50;15.77;;;8.30;;
54539;SDS011;40438;52.992;18.604;2022-10-01T09:30:21;15.35;;;8.20;;
54539;SDS011;40438;52.992;18.604;2022-10-01T09:32:51;19.73;;;9.18;;
54539;SDS011;40438;52.992;18.604;2022-10-01T09:35:26;14.45;;;9.27;;
54539;SDS011;40438;52.992;18.604;2022-10-01T09:38:00;21.88;;;11.65;;
54539;SDS011;40438;52.992;18.604;2022-10-01T09:40:32;15.25;;;9.52;;
54539;SDS011;40438;52.992;18.604;2022-10-01T09:42:59;17.52;;;8.48;;
54539;SDS011;40438;52.992;18.604;2022-10-01T09:45:26;20.60;;;8.40;;
54539;SDS011;40438;52.992;18.604;2022-10-01T09:47:53;17.55;;;8.68;;
54539;SDS011;40438;52.992;18.604;2022-10-01T09:50:29;15.73;;;8.80;;
54539;SDS011;40438;52.992;18.604;2022-10-01T09:53:02;15.35;;;8.23;;
54539;SDS011;40438;52.992;18.604;2022-10-01T09:55:30;13.18;;;7.18;;
54539;SDS011;40438;52.992;18.604;2022-10-01T09:58:02;21.30;;;7.82;;
54539;SDS011;40438;52.992;18.604;2022-10-01T10:00:32;14.53;;;8.17;;
54539;SDS011;40438;52.992;18.604;2022-10-01T10:03:03;15.10;;;7.75;;
54539;SDS011;40438;52.992;18.604;2022-10-01T10:05:29;15.73;;;7.70;;
54539;SDS011;40438;52.992;18.604;2022-10-01T10:08:09;13.52;;;6.93;;
54539;SDS011;40438;52.992;18.604;2022-10-01T10:10:38;13.48;;;7.53;;
54539;SDS011;40438;52.992;18.604;2022-10-01T10:13:15;10.23;;;6.97;;
54539;SDS011;40438;52.992;18.604;2022-10-01T10:15:48;15.82;;;7.63;;
54539;SDS011;40438;52.992;18.604;2022-10-01T10:18:20;16.45;;;7.13;;
54539;SDS011;40438;52.992;18.604;2022-10-01T10:20:51;15.15;;;7.10;;
54539;SDS011;40438;52.992;18.604;2022-10-01T10:23:19;14.45;;;7.88;;
54539;SDS011;40438;52.992;18.604;2022-10-01T10:25:52;12.50;;;6.82;;
54539;SDS011;40438;52.992;18.604;2022-10-01T10:28:19;15.35;;;8.55;;
54539;SDS011;40438;52.992;18.604;2022-10-01T10:30:47;17.48;;;7.22;;
54539;SDS011;40438;52.992;18.604;2022-10-01T10:33:14;13.75;;;6.82;;
54539;SDS011;40438;52.992;18.604;2022-10-01T10:35:43;15.35;;;7.38;;
54539;SDS011;40438;52.992;18.604;2022-10-01T10:38:14;11.93;;;6.82;;
54539;SDS011;40438;52.992;18.604;2022-10-01T10:40:43;12.57;;;7.43;;
54539;SDS011;40438;52.992;18.604;2022-10-01T10:43:14;16.30;;;7.68;;
54539;SDS011;40438;52.992;18.604;2022-10-01T10:45:44;15.73;;;7.50;;
54539;SDS011;40438;52.992;18.604;2022-10-01T10:48:10;13.32;;;7.28;;
54539;SDS011;40438;52.992;18.604;2022-10-01T10:50:42;17.52;;;7.45;;
54539;SDS011;40438;52.992;18.604;2022-10-01T10:53:12;13.48;;;7.25;;
54539;SDS011;40438;52.992;18.604;2022-10-01T10:55:42;13.77;;;6.97;;
54539;SDS011;40438;52.992;18.604;2022-10-01T10:58:17;14.13;;;7.40;;
54539;SDS011;40438;52.992;18.604;2022-10-01T11:00:43;14.27;;;8.15;;
54539;SDS011;40438;52.992;18.604;2022-10-01T11:03:12;13.90;;;7.55;;
54539;SDS011;40438;52.992;18.604;2022-10-01T11:05:40;14.80;;;7.50;;
54539;SDS011;40438;52.992;18.604;2022-10-01T11:08:09;15.13;;;8.07;;
54539;SDS011;40438;52.992;18.604;2022-10-01T11:10:38;12.52;;;7.20;;
54539;SDS011;40438;52.992;18.604;2022-10-01T11:13:22;11.85;;;7.07;;
54539;SDS011;40438;52.992;18.604;2022-10-01T11:16:02;12.45;;;7.35;;
54539;SDS011;40438;52.992;18.604;2022-10-01T11:18:49;22.10;;;7.68;;
54539;SDS011;40438;52.992;18.604;2022-10-01T11:21:31;13.90;;;7.18;;
54539;SDS011;40438;52.992;18.604;2022-10-01T11:24:15;17.13;;;8.23;;
54539;SDS011;40438;52.992;18.604;2022-10-01T11:26:55;18.63;;;9.55;;
54539;SDS011;40438;52.992;18.604;2022-10-01T11:29:30;15.57;;;7.65;;
54539;SDS011;40438;52.992;18.604;2022-10-01T11:32:14;15.07;;;7.50;;
54539;SDS011;40438;52.992;18.604;2022-10-01T11:34:52;11.80;;;7.25;;
54539;SDS011;40438;52.992;18.604;2022-10-01T11:37:30;18.90;;;7.45;;
54539;SDS011;40438;52.992;18.604;2022-10-01T11:40:19;12.63;;;7.28;;
54539;SDS011;40438;52.992;18.604;2022-10-01T11:42:48;27.80;;;14.73;;
54539;SDS011;40438;52.992;18.604;2022-10-01T11:45:18;16.73;;;8.82;;
54539;SDS011;40438;52.992;18.604;2022-10-01T11:47:48;15.10;;;8.98;;
54539;SDS011;40438;52.992;18.604;2022-10-01T11:50:17;14.50;;;7.63;;
54539;SDS011;40438;52.992;18.604;2022-10-01T11:52:46;14.73;;;7.25;;
54539;SDS011;40438;52.992;18.604;2022-10-01T11:55:19;14.65;;;8.10;;
54539;SDS011;40438;52.992;18.604;2022-10-01T11:57:50;18.98;;;9.02;;
54539;SDS011;40438;52.992;18.604;2022-10-01T12:00:20;14.20;;;7.78;;
54539;SDS011;40438;52.992;18.604;2022-10-01T12:02:47;15.07;;;7.88;;
54539;SDS011;40438;52.992;18.604;2022-10-01T12:05:19;12.65;;;7.95;;
54539;SDS011;40438;52.992;18.604;2022-10-01T12:07:50;16.30;;;8.60;;
54539;SDS011;40438;52.992;18.604;2022-10-01T12:10:23;17.95;;;8.50;;
54539;SDS011;40438;52.992;18.604;2022-10-01T12:13:00;12.75;;;7.20;;
54539;SDS011;40438;52.992;18.604;2022-10-01T12:15:36;15.57;;;7.93;;
54539;SDS011;40438;52.992;18.604;2022-10-01T12:18:09;17.45;;;10.05;;
54539;SDS011;40438;52.992;18.604;2022-10-01T12:20:43;20.55;;;10.55;;
54539;SDS011;40438;52.992;18.604;2022-10-01T12:23:13;17.17;;;10.00;;
54539;SDS011;40438;52.992;18.604;2022-10-01T12:25:44;16.75;;;9.00;;
54539;SDS011;40438;52.992;18.604;2022-10-01T12:28:15;17.60;;;9.48;;
54539;SDS011;40438;52.992;18.604;2022-10-01T12:30:48;17.70;;;8.93;;
54539;SDS011;40438;52.992;18.604;2022-10-01T12:33:31;20.23;;;8.43;;
54539;SDS011;40438;52.992;18.604;2022-10-01T12:36:07;18.15;;;9.35;;
54539;SDS011;40438;52.992;18.604;2022-10-01T12:38:47;18.58;;;10.13;;
54539;SDS011;40438;52.992;18.604;2022-10-01T12:41:26;14.68;;;8.15;;
54539;SDS011;40438;52.992;18.604;2022-10-01T12:47:08;11.70;;;6.88;;
54539;SDS011;40438;52.992;18.604;2022-10-01T12:49:48;13.70;;;7.70;;
54539;SDS011;40438;52.992;18.604;2022-10-01T12:52:23;12.40;;;7.00;;
54539;SDS011;40438;52.992;18.604;2022-10-01T12:55:01;16.23;;;7.03;;
54539;SDS011;40438;52.992;18.604;2022-10-01T12:57:41;20.95;;;8.25;;
54539;SDS011;40438;52.992;18.604;2022-10-01T13:00:16;12.82;;;6.97;;
54539;SDS011;40438;52.992;18.604;2022-10-01T13:05:58;15.48;;;7.78;;
54539;SDS011;40438;52.992;18.604;2022-10-01T13:08:41;15.30;;;9.02;;
54539;SDS011;40438;52.992;18.604;2022-10-01T13:11:20;15.85;;;8.88;;
54539;SDS011;40438;52.992;18.604;2022-10-01T13:13:57;17.92;;;9.30;;
54539;SDS011;40438;52.992;18.604;2022-10-01T13:16:23;18.88;;;8.70;;
54539;SDS011;40438;52.992;18.604;2022-10-01T13:18:59;14.80;;;8.50;;
54539;SDS011;40438;52.992;18.604;2022-10-01T13:24:10;24.17;;;11.80;;
54539;SDS011;40438;52.992;18.604;2022-10-01T13:26:41;17.50;;;9.63;;
54539;SDS011;40438;52.992;18.604;2022-10-01T13:29:20;15.60;;;8.60;;
54539;SDS011;40438;52.992;18.604;2022-10-01T13:31:56;16.08;;;8.35;;
54539;SDS011;40438;52.992;18.604;2022-10-01T13:34:25;15.88;;;8.60;;
54539;SDS011;40438;52.992;18.604;2022-10-01T13:37:14;15.32;;;8.95;;
54539;SDS011;40438;52.992;18.604;2022-10-01T13:39:41;17.05;;;9.82;;
54539;SDS011;40438;52.992;18.604;2022-10-01T13:42:09;19.45;;;9.82;;
54539;SDS011;40438;52.992;18.604;2022-10-01T13:44:43;22.70;;;9.48;;
54539;SDS011;40438;52.992;18.604;2022-10-01T13:47:16;19.60;;;9.75;;
54539;SDS011;40438;52.992;18.604;2022-10-01T13:49:50;15.65;;;9.57;;
54539;SDS011;40438;52.992;18.604;2022-10-01T13:52:18;18.48;;;9.90;;
54539;SDS011;40438;52.992;18.604;2022-10-01T13:54:45;19.02;;;10.65;;
54539;SDS011;40438;52.992;18.604;2022-10-01T13:57:21;20.40;;;10.20;;
54539;SDS011;40438;52.992;18.604;2022-10-01T13:59:58;21.15;;;10.93;;
54539;SDS011;40438;52.992;18.604;2022-10-01T14:02:27;20.65;;;10.70;;
54539;SDS011;40438;52.992;18.604;2022-10-01T14:04:55;22.42;;;11.15;;
54539;SDS011;40438;52.992;18.604;2022-10-01T14:07:27;24.57;;;11.03;;
54539;SDS011;40438;52.992;18.604;2022-10-01T14:10:00;19.83;;;10.75;;
54539;SDS011;40438;52.992;18.604;2022-10-01T14:12:27;56.00;;;23.98;;
54539;SDS011;40438;52.992;18.604;2022-10-01T14:14:56;29.95;;;14.32;;
54539;SDS011;40438;52.992;18.604;2022-10-01T14:17:26;26.90;;;12.48;;
54539;SDS011;40438;52.992;18.604;2022-10-01T14:19:54;27.73;;;14.40;;
54539;SDS011;40438;52.992;18.604;2022-10-01T14:22:24;32.30;;;13.75;;
54539;SDS011;40438;52.992;18.604;2022-10-01T14:28:06;21.52;;;11.35;;
54539;SDS011;40438;52.992;18.604;2022-10-01T14:30:44;36.03;;;20.15;;
54539;SDS011;40438;52.992;18.604;2022-10-01T14:33:23;23.55;;;12.70;;
54539;SDS011;40438;52.992;18.604;2022-10-01T14:36:15;26.92;;;13.45;;
54539;SDS011;40438;52.992;18.604;2022-10-01T14:38:42;21.40;;;11.85;;
54539;SDS011;40438;52.992;18.604;2022-10-01T14:41:14;23.95;;;12.98;;
54539;SDS011;40438;52.992;18.604;2022-10-01T14:43:41;22.92;;;12.90;;
54539;SDS011;40438;52.992;18.604;2022-10-01T14:46:12;23.67;;;11.25;;